createdAt,value
2022-11-09T00:00:25.098Z,15.7
2022-11-09T00:01:28.682Z,15.7
2022-11-09T00:02:32.112Z,15.7
2022-11-09T00:03:35.146Z,15.7
2022-11-09T00:04:38.473Z,15.7
2022-11-09T00:05:40.909Z,15.8
2022-11-09T00:06:44.481Z,15.7
2022-11-09T00:07:47.586Z,15.8
2022-11-09T00:08:50.502Z,15.8
2022-11-09T00:09:54.258Z,15.8
2022-11-09T00:10:57.121Z,15.7
2022-11-09T00:12:00.399Z,15.7
2022-11-09T00:13:04.780Z,15.8
2022-11-09T00:14:07.599Z,15.7
2022-11-09T00:15:11.110Z,15.7
2022-11-09T00:16:13.918Z,15.7
2022-11-09T00:17:16.659Z,15.7
2022-11-09T00:18:19.661Z,15.7
2022-11-09T00:19:23.023Z,15.7
2022-11-09T00:20:26.395Z,15.7
2022-11-09T00:21:29.809Z,15.7
2022-11-09T00:22:32.436Z,15.7
2022-11-09T00:23:35.511Z,15.7
2022-11-09T00:24:38.299Z,15.7
2022-11-09T00:25:41.404Z,15.7
2022-11-09T00:26:44.873Z,15.7
2022-11-09T00:27:47.852Z,15.7
2022-11-09T00:28:51.318Z,15.7
2022-11-09T00:29:53.920Z,15.7
2022-11-09T00:30:57.248Z,15.7
2022-11-09T00:31:59.397Z,15.7
2022-11-09T00:33:02.414Z,15.7
2022-11-09T00:34:04.951Z,15.7
2022-11-09T00:35:07.568Z,15.7
2022-11-09T00:36:10.787Z,15.7
2022-11-09T00:37:13.470Z,15.7
2022-11-09T00:38:16.848Z,15.7
2022-11-09T00:39:19.712Z,15.7
2022-11-09T00:40:22.514Z,15.7
2022-11-09T00:41:25.880Z,15.7
2022-11-09T00:42:28.707Z,15.7
2022-11-09T00:43:31.988Z,15.6
2022-11-09T00:44:36.308Z,15.7
2022-11-09T00:45:39.763Z,15.6
2022-11-09T00:46:42.859Z,15.6
2022-11-09T00:47:45.464Z,15.7
2022-11-09T00:48:48.555Z,15.7
2022-11-09T00:49:51.664Z,15.7
2022-11-09T00:50:54.416Z,15.6
2022-11-09T00:51:57.557Z,15.6
2022-11-09T00:53:00.724Z,15.6
2022-11-09T00:54:04.080Z,15.6
2022-11-09T00:55:06.874Z,15.6
2022-11-09T00:56:09.990Z,15.6
2022-11-09T00:57:13.287Z,15.6
2022-11-09T00:58:16.454Z,15.6
2022-11-09T00:59:19.644Z,15.6
2022-11-09T01:00:23.176Z,15.6
2022-11-09T01:01:26.040Z,15.6
2022-11-09T01:02:29.763Z,15.6
2022-11-09T01:03:32.494Z,15.6
2022-11-09T01:04:35.224Z,15.6
2022-11-09T01:05:38.018Z,15.6
2022-11-09T01:06:41.554Z,15.6
2022-11-09T01:07:44.774Z,15.6
2022-11-09T01:08:48.069Z,15.6
2022-11-09T01:09:50.515Z,15.6
2022-11-09T01:10:53.582Z,15.6
2022-11-09T01:11:57.020Z,15.6
2022-11-09T01:12:59.924Z,15.6
2022-11-09T01:14:02.485Z,15.6
2022-11-09T01:15:05.483Z,15.6
2022-11-09T01:16:09.250Z,15.6
2022-11-09T01:17:12.981Z,15.6
2022-11-09T01:18:15.484Z,15.6
2022-11-09T01:19:17.926Z,15.6
2022-11-09T01:20:20.810Z,15.6
2022-11-09T01:21:23.807Z,15.6
2022-11-09T01:22:27.176Z,15.6
2022-11-09T01:23:30.318Z,15.6
2022-11-09T01:24:33.955Z,15.6
2022-11-09T01:25:36.837Z,15.7
2022-11-09T01:26:39.070Z,15.7
2022-11-09T01:27:42.495Z,15.6
2022-11-09T01:28:45.514Z,15.7
2022-11-09T01:29:48.993Z,15.7
2022-11-09T01:30:51.857Z,15.7
2022-11-09T01:31:55.637Z,15.7
2022-11-09T01:32:58.161Z,15.6
2022-11-09T01:34:01.294Z,15.6
2022-11-09T01:35:04.285Z,15.6
2022-11-09T01:36:07.744Z,15.6
2022-11-09T01:37:11.201Z,15.6
2022-11-09T01:38:14.388Z,15.6
2022-11-09T01:39:17.597Z,15.6
2022-11-09T01:40:21.396Z,15.6
2022-11-09T01:41:24.392Z,15.6
2022-11-09T01:42:27.769Z,15.6
2022-11-09T01:43:30.567Z,15.6
2022-11-09T01:44:33.581Z,15.6
2022-11-09T01:45:36.856Z,15.6
2022-11-09T01:46:40.278Z,15.6
2022-11-09T01:47:43.377Z,15.6
2022-11-09T01:48:46.839Z,15.6
2022-11-09T01:49:50.178Z,15.6
2022-11-09T01:50:52.626Z,15.7
2022-11-09T01:51:55.499Z,15.6
2022-11-09T01:52:58.583Z,15.6
2022-11-09T01:54:00.848Z,15.6
2022-11-09T01:55:04.190Z,15.6
2022-11-09T01:56:07.616Z,15.6
2022-11-09T01:57:11.065Z,15.6
2022-11-09T01:58:14.176Z,15.6
2022-11-09T01:59:17.036Z,15.6
2022-11-09T02:00:19.852Z,15.6
2022-11-09T02:01:23.594Z,15.6
2022-11-09T02:02:27.350Z,15.6
2022-11-09T02:03:31.088Z,15.6
2022-11-09T02:04:33.877Z,15.6
2022-11-09T02:05:36.871Z,15.5
2022-11-09T02:06:39.488Z,15.6
2022-11-09T02:07:42.951Z,15.6
2022-11-09T02:08:45.384Z,15.6
2022-11-09T02:09:48.469Z,15.6
2022-11-09T02:10:51.513Z,15.6
2022-11-09T02:11:54.405Z,15.6
2022-11-09T02:12:56.349Z,15.6
2022-11-09T02:13:59.790Z,15.5
2022-11-09T02:15:02.383Z,15.5
2022-11-09T02:16:05.647Z,15.5
2022-11-09T02:17:08.816Z,15.6
2022-11-09T02:18:11.051Z,15.5
2022-11-09T02:19:15.152Z,15.5
2022-11-09T02:20:18.924Z,15.6
2022-11-09T02:21:21.731Z,15.5
2022-11-09T02:22:24.587Z,15.6
2022-11-09T02:23:28.026Z,15.5
2022-11-09T02:24:30.351Z,15.6
2022-11-09T02:25:33.368Z,15.5
2022-11-09T02:26:36.818Z,15.5
2022-11-09T02:27:39.629Z,15.5
2022-11-09T02:28:42.426Z,15.5
2022-11-09T02:29:45.865Z,15.5
2022-11-09T02:30:48.475Z,15.5
2022-11-09T02:31:51.641Z,15.5
2022-11-09T02:32:55.125Z,15.5
2022-11-09T02:33:58.297Z,15.6
2022-11-09T02:35:01.732Z,15.6
2022-11-09T02:36:04.446Z,15.5
2022-11-09T02:37:07.349Z,15.6
2022-11-09T02:38:10.697Z,15.6
2022-11-09T02:39:13.330Z,15.6
2022-11-09T02:40:15.869Z,15.6
2022-11-09T02:41:19.367Z,15.6
2022-11-09T02:42:22.700Z,15.6
2022-11-09T02:43:25.679Z,15.6
2022-11-09T02:44:28.468Z,15.6
2022-11-09T02:45:31.898Z,15.5
2022-11-09T02:46:35.173Z,15.6
2022-11-09T02:47:38.002Z,15.6
2022-11-09T02:48:41.846Z,15.6
2022-11-09T02:49:44.285Z,15.6
2022-11-09T02:50:47.587Z,15.5
2022-11-09T02:51:50.868Z,15.5
2022-11-09T02:52:53.856Z,15.5
2022-11-09T02:53:56.176Z,15.5
2022-11-09T02:54:59.265Z,15.5
2022-11-09T02:56:02.621Z,15.6
2022-11-09T02:57:06.133Z,15.5
2022-11-09T02:58:08.970Z,15.5
2022-11-09T02:59:12.327Z,15.5
2022-11-09T03:00:14.665Z,15.5
2022-11-09T03:01:18.114Z,15.5
2022-11-09T03:02:21.528Z,15.5
2022-11-09T03:03:24.831Z,15.5
2022-11-09T03:04:28.016Z,15.5
2022-11-09T03:05:30.819Z,15.5
2022-11-09T03:06:34.100Z,15.5
2022-11-09T03:07:38.241Z,15.5
2022-11-09T03:08:40.861Z,15.4
2022-11-09T03:09:44.052Z,15.5
2022-11-09T03:10:47.144Z,15.5
2022-11-09T03:11:49.946Z,15.4
2022-11-09T03:12:52.963Z,15.5
2022-11-09T03:13:55.591Z,15.5
2022-11-09T03:14:58.772Z,15.5
2022-11-09T03:16:01.864Z,15.5
2022-11-09T03:17:04.326Z,15.5
2022-11-09T03:18:07.205Z,15.5
2022-11-09T03:19:09.950Z,15.5
2022-11-09T03:20:12.901Z,15.5
2022-11-09T03:21:16.177Z,15.5
2022-11-09T03:22:18.719Z,15.5
2022-11-09T03:23:22.596Z,15.5
2022-11-09T03:24:25.681Z,15.5
2022-11-09T03:25:28.502Z,15.5
2022-11-09T03:26:31.314Z,15.4
2022-11-09T03:27:34.111Z,15.5
2022-11-09T03:28:37.135Z,15.5
2022-11-09T03:29:39.683Z,15.5
2022-11-09T03:30:42.663Z,15.4
2022-11-09T03:31:45.821Z,15.5
2022-11-09T03:32:51.477Z,15.5
2022-11-09T03:33:54.929Z,15.5
2022-11-09T03:34:58.330Z,15.5
2022-11-09T03:36:01.458Z,15.5
2022-11-09T03:37:04.736Z,15.5
2022-11-09T03:38:08.520Z,15.5
2022-11-09T03:39:12.265Z,15.5
2022-11-09T03:40:15.363Z,15.5
2022-11-09T03:41:18.436Z,15.5
2022-11-09T03:42:20.974Z,15.5
2022-11-09T03:43:24.562Z,15.5
2022-11-09T03:44:27.150Z,15.5
2022-11-09T03:45:30.257Z,15.4
2022-11-09T03:46:33.510Z,15.5
2022-11-09T03:47:36.587Z,15.5
2022-11-09T03:48:39.667Z,15.5
2022-11-09T03:49:42.940Z,15.5
2022-11-09T03:50:45.488Z,15.5
2022-11-09T03:51:48.669Z,15.5
2022-11-09T03:52:51.758Z,15.5
2022-11-09T03:53:55.420Z,15.5
2022-11-09T03:54:58.497Z,15.5
2022-11-09T03:56:01.935Z,15.5
2022-11-09T03:57:04.735Z,15.5
2022-11-09T03:58:07.925Z,15.5
2022-11-09T03:59:10.988Z,15.5
2022-11-09T04:00:13.975Z,15.5
2022-11-09T04:01:17.188Z,15.5
2022-11-09T04:02:20.449Z,15.5
2022-11-09T04:03:24.120Z,15.5
2022-11-09T04:04:26.656Z,15.5
2022-11-09T04:05:28.893Z,15.5
2022-11-09T04:06:32.543Z,15.5
2022-11-09T04:07:36.260Z,15.6
2022-11-09T04:08:39.059Z,15.5
2022-11-09T04:09:41.985Z,15.6
2022-11-09T04:10:45.420Z,15.5
2022-11-09T04:11:48.607Z,15.6
2022-11-09T04:12:51.314Z,15.6
2022-11-09T04:13:54.946Z,15.6
2022-11-09T04:14:58.436Z,15.6
2022-11-09T04:16:01.250Z,15.6
2022-11-09T04:17:04.168Z,15.6
2022-11-09T04:18:06.892Z,15.6
2022-11-09T04:19:10.162Z,15.6
2022-11-09T04:20:13.248Z,15.6
2022-11-09T04:21:24.402Z,15.6
2022-11-09T04:22:27.501Z,15.6
2022-11-09T04:23:30.957Z,15.6
2022-11-09T04:24:33.402Z,15.6
2022-11-09T04:25:36.848Z,15.6
2022-11-09T04:26:40.136Z,15.7
2022-11-09T04:27:42.665Z,15.6
2022-11-09T04:28:44.916Z,15.7
2022-11-09T04:29:48.049Z,15.7
2022-11-09T04:30:51.129Z,15.7
2022-11-09T04:31:54.584Z,15.7
2022-11-09T04:32:57.466Z,15.7
2022-11-09T04:34:00.545Z,15.7
2022-11-09T04:35:04.339Z,15.7
2022-11-09T04:36:07.699Z,15.7
2022-11-09T04:37:10.492Z,15.7
2022-11-09T04:38:12.950Z,15.7
2022-11-09T04:39:16.199Z,15.7
2022-11-09T04:40:18.916Z,15.7
2022-11-09T04:41:22.372Z,15.7
2022-11-09T04:42:24.897Z,15.7
2022-11-09T04:43:28.055Z,15.7
2022-11-09T04:44:30.772Z,15.7
2022-11-09T04:45:33.710Z,15.7
2022-11-09T04:46:36.856Z,15.6
2022-11-09T04:47:39.940Z,15.6
2022-11-09T04:48:43.383Z,15.7
2022-11-09T04:49:45.937Z,15.7
2022-11-09T04:50:49.101Z,15.6
2022-11-09T04:51:51.335Z,15.7
2022-11-09T04:52:54.170Z,15.6
2022-11-09T04:53:57.843Z,15.7
2022-11-09T04:55:01.380Z,15.7
2022-11-09T04:56:04.110Z,15.7
2022-11-09T04:57:06.753Z,15.7
2022-11-09T04:58:09.276Z,15.7
2022-11-09T04:59:12.344Z,15.7
2022-11-09T05:00:15.864Z,15.6
2022-11-09T05:01:18.648Z,15.7
2022-11-09T05:02:21.167Z,15.7
2022-11-09T05:03:25.508Z,15.7
2022-11-09T05:04:28.861Z,15.7
2022-11-09T05:05:32.313Z,15.7
2022-11-09T05:06:35.998Z,15.7
2022-11-09T05:07:38.927Z,15.7
2022-11-09T05:08:41.645Z,15.7
2022-11-09T05:09:45.393Z,15.7
2022-11-09T05:10:48.853Z,15.7
2022-11-09T05:11:51.649Z,15.7
2022-11-09T05:12:55.359Z,15.7
2022-11-09T05:13:58.083Z,15.7
2022-11-09T05:15:01.235Z,15.7
2022-11-09T05:16:03.944Z,15.7
2022-11-09T05:17:06.560Z,15.7
2022-11-09T05:18:09.356Z,15.7
2022-11-09T05:19:13.192Z,15.7
2022-11-09T05:20:16.149Z,15.7
2022-11-09T05:21:19.206Z,15.7
2022-11-09T05:22:22.256Z,15.7
2022-11-09T05:23:25.763Z,15.7
2022-11-09T05:24:27.982Z,15.7
2022-11-09T05:25:30.803Z,15.8
2022-11-09T05:26:34.293Z,15.8
2022-11-09T05:27:36.921Z,15.8
2022-11-09T05:28:39.736Z,15.7
2022-11-09T05:29:42.893Z,15.8
2022-11-09T05:30:45.535Z,15.8
2022-11-09T05:31:53.156Z,15.8
2022-11-09T05:32:55.988Z,15.8
2022-11-09T05:33:58.793Z,15.8
2022-11-09T05:35:01.751Z,15.7
2022-11-09T05:36:04.534Z,15.8
2022-11-09T05:37:07.133Z,15.8
2022-11-09T05:38:09.567Z,15.8
2022-11-09T05:39:13.370Z,15.8
2022-11-09T05:40:16.722Z,15.8
2022-11-09T05:41:20.025Z,15.8
2022-11-09T05:42:22.291Z,15.8
2022-11-09T05:43:24.806Z,15.8
2022-11-09T05:44:28.013Z,15.8
2022-11-09T05:45:46.427Z,15.8
2022-11-09T05:46:49.537Z,15.8
2022-11-09T05:47:53.169Z,15.8
2022-11-09T05:48:56.189Z,15.8
2022-11-09T05:49:59.338Z,15.8
2022-11-09T05:51:02.632Z,15.8
2022-11-09T05:52:05.835Z,15.8
2022-11-09T05:53:08.997Z,15.8
2022-11-09T05:54:11.326Z,15.8
2022-11-09T05:55:14.036Z,15.8
2022-11-09T05:56:17.212Z,15.8
2022-11-09T05:57:20.296Z,15.8
2022-11-09T05:58:23.781Z,15.8
2022-11-09T05:59:27.579Z,15.8
2022-11-09T06:00:31.028Z,15.8
2022-11-09T06:01:33.893Z,15.8
2022-11-09T06:02:37.171Z,15.8
2022-11-09T06:03:40.394Z,15.8
2022-11-09T06:04:43.921Z,15.8
2022-11-09T06:05:47.272Z,15.8
2022-11-09T06:06:49.805Z,15.8
2022-11-09T06:07:53.214Z,15.8
2022-11-09T06:08:55.927Z,15.8
2022-11-09T06:09:58.367Z,15.8
2022-11-09T06:11:01.535Z,15.8
2022-11-09T06:12:04.064Z,15.7
2022-11-09T06:13:06.798Z,15.8
2022-11-09T06:14:10.270Z,15.7
2022-11-09T06:15:13.549Z,15.8
2022-11-09T06:16:17.264Z,15.7
2022-11-09T06:17:20.178Z,15.7
2022-11-09T06:18:23.268Z,15.7
2022-11-09T06:19:26.682Z,15.7
2022-11-09T06:20:29.748Z,15.8
2022-11-09T06:21:32.813Z,15.7
2022-11-09T06:22:35.559Z,15.8
2022-11-09T06:23:37.778Z,15.7
2022-11-09T06:24:40.851Z,15.7
2022-11-09T06:25:44.501Z,15.8
2022-11-09T06:26:48.025Z,15.7
2022-11-09T06:27:51.760Z,15.7
2022-11-09T06:28:55.206Z,15.7
2022-11-09T06:29:58.944Z,15.7
2022-11-09T06:31:01.762Z,15.7
2022-11-09T06:32:05.416Z,15.8
2022-11-09T06:33:08.486Z,15.7
2022-11-09T06:34:11.272Z,15.7
2022-11-09T06:35:14.132Z,15.7
2022-11-09T06:36:17.233Z,15.7
2022-11-09T06:37:20.669Z,15.7
2022-11-09T06:38:23.709Z,15.7
2022-11-09T06:39:27.201Z,15.7
2022-11-09T06:40:30.298Z,15.7
2022-11-09T06:41:32.958Z,15.7
2022-11-09T06:42:36.123Z,15.7
2022-11-09T06:43:39.690Z,15.7
2022-11-09T06:44:42.225Z,15.7
2022-11-09T06:45:45.681Z,15.7
2022-11-09T06:46:48.749Z,15.7
2022-11-09T06:47:52.216Z,15.7
2022-11-09T06:48:55.490Z,15.7
2022-11-09T06:49:58.443Z,15.7
2022-11-09T06:51:01.317Z,15.7
2022-11-09T06:52:03.674Z,15.7
2022-11-09T06:53:06.843Z,15.7
2022-11-09T06:54:09.298Z,15.7
2022-11-09T06:55:13.066Z,15.7
2022-11-09T06:56:16.420Z,15.7
2022-11-09T06:57:19.570Z,15.7
2022-11-09T06:58:22.636Z,15.7
2022-11-09T06:59:26.170Z,15.7
2022-11-09T07:00:29.533Z,15.7
2022-11-09T07:01:33.593Z,15.8
2022-11-09T07:02:36.692Z,15.7
2022-11-09T07:03:40.068Z,15.7
2022-11-09T07:04:42.586Z,15.7
2022-11-09T07:05:45.773Z,15.8
2022-11-09T07:06:49.435Z,15.8
2022-11-09T07:07:53.484Z,15.8
2022-11-09T07:08:56.315Z,15.8
2022-11-09T07:09:59.319Z,15.8
2022-11-09T07:11:02.086Z,15.8
2022-11-09T07:12:05.451Z,15.8
2022-11-09T07:13:08.622Z,15.8
2022-11-09T07:14:11.968Z,15.8
2022-11-09T07:15:15.773Z,15.8
2022-11-09T07:16:19.463Z,15.8
2022-11-09T07:17:22.650Z,15.8
2022-11-09T07:18:25.728Z,15.8
2022-11-09T07:19:29.097Z,15.8
2022-11-09T07:20:32.413Z,15.8
2022-11-09T07:21:35.317Z,15.8
2022-11-09T07:22:38.483Z,15.8
2022-11-09T07:23:41.936Z,15.8
2022-11-09T07:24:45.045Z,15.8
2022-11-09T07:25:49.087Z,15.9
2022-11-09T07:26:51.992Z,15.9
2022-11-09T07:27:55.887Z,15.9
2022-11-09T07:28:58.893Z,15.9
2022-11-09T07:30:02.149Z,15.9
2022-11-09T07:31:05.531Z,15.9
2022-11-09T07:32:08.436Z,15.9
2022-11-09T07:33:11.168Z,15.9
2022-11-09T07:34:14.335Z,15.9
2022-11-09T07:35:17.859Z,15.9
2022-11-09T07:36:22.776Z,15.9
2022-11-09T07:37:25.502Z,16
2022-11-09T07:38:28.382Z,16
2022-11-09T07:39:31.458Z,16
2022-11-09T07:40:34.905Z,16
2022-11-09T07:41:37.921Z,16
2022-11-09T07:42:41.168Z,16
2022-11-09T07:43:44.261Z,16.1
2022-11-09T07:44:46.977Z,16.1
2022-11-09T07:45:50.624Z,16.1
2022-11-09T07:46:53.334Z,16.1
2022-11-09T07:47:56.235Z,16.1
2022-11-09T07:48:59.049Z,16.1
2022-11-09T07:50:01.926Z,16.1
2022-11-09T07:51:05.618Z,16.1
2022-11-09T07:52:08.146Z,16.1
2022-11-09T07:53:11.806Z,16.1
2022-11-09T07:54:14.687Z,16.1
2022-11-09T07:55:17.953Z,16.1
2022-11-09T07:56:21.339Z,16.1
2022-11-09T07:57:24.893Z,16.1
2022-11-09T07:58:27.706Z,16.2
2022-11-09T07:59:30.704Z,16.2
2022-11-09T08:00:34.175Z,16.2
2022-11-09T08:01:38.088Z,16.2
2022-11-09T08:02:41.668Z,16.2
2022-11-09T08:03:45.149Z,16.3
2022-11-09T08:04:48.330Z,16.3
2022-11-09T08:05:51.444Z,16.3
2022-11-09T08:06:55.366Z,16.3
2022-11-09T08:07:58.763Z,16.3
2022-11-09T08:09:01.838Z,16.3
2022-11-09T08:10:04.080Z,16.4
2022-11-09T08:11:06.937Z,16.4
2022-11-09T08:12:10.298Z,16.4
2022-11-09T08:13:13.663Z,16.4
2022-11-09T08:14:17.368Z,16.4
2022-11-09T08:15:20.517Z,16.5
2022-11-09T08:16:24.134Z,16.5
2022-11-09T08:17:27.288Z,16.5
2022-11-09T08:18:31.915Z,16.5
2022-11-09T08:19:35.281Z,16.6
2022-11-09T08:20:39.006Z,16.6
2022-11-09T08:21:41.795Z,16.6
2022-11-09T08:22:44.669Z,16.6
2022-11-09T08:23:48.087Z,16.7
2022-11-09T08:24:51.179Z,16.7
2022-11-09T08:25:54.320Z,16.7
2022-11-09T08:26:57.522Z,16.7
2022-11-09T08:28:00.697Z,16.7
2022-11-09T08:29:03.750Z,16.7
2022-11-09T08:30:07.020Z,16.7
2022-11-09T08:31:09.846Z,16.7
2022-11-09T08:32:13.212Z,16.8
2022-11-09T08:33:16.598Z,16.7
2022-11-09T08:34:19.956Z,16.7
2022-11-09T08:35:22.505Z,16.8
2022-11-09T08:36:26.158Z,16.8
2022-11-09T08:37:29.544Z,16.8
2022-11-09T08:38:33.199Z,16.8
2022-11-09T08:39:35.996Z,16.9
2022-11-09T08:40:39.276Z,16.9
2022-11-09T08:41:42.457Z,16.9
2022-11-09T08:42:45.941Z,16.9
2022-11-09T08:43:49.700Z,17
2022-11-09T08:44:52.605Z,17
2022-11-09T08:45:56.012Z,17
2022-11-09T08:46:59.002Z,17
2022-11-09T08:48:02.152Z,17
2022-11-09T08:49:05.587Z,17
2022-11-09T08:50:08.668Z,17
2022-11-09T08:51:12.655Z,17.1
2022-11-09T08:52:16.172Z,17.1
2022-11-09T08:53:19.251Z,17.1
2022-11-09T08:54:22.686Z,17.1
2022-11-09T08:55:25.771Z,17.2
2022-11-09T08:56:28.216Z,17.2
2022-11-09T08:57:31.278Z,17.2
2022-11-09T08:58:34.161Z,17.2
2022-11-09T08:59:36.475Z,17.2
2022-11-09T09:00:39.292Z,17.2
2022-11-09T09:01:42.431Z,17.3
2022-11-09T09:02:46.131Z,17.3
2022-11-09T09:03:48.960Z,17.3
2022-11-09T09:04:51.486Z,17.3
2022-11-09T09:05:54.005Z,17.3
2022-11-09T09:06:58.070Z,17.3
2022-11-09T09:08:01.763Z,17.3
2022-11-09T09:09:04.586Z,17.4
2022-11-09T09:10:07.837Z,17.3
2022-11-09T09:11:11.015Z,17.4
2022-11-09T09:12:13.991Z,17.4
2022-11-09T09:13:17.087Z,17.4
2022-11-09T09:14:20.223Z,17.4
2022-11-09T09:15:23.503Z,17.5
2022-11-09T09:16:26.368Z,17.5
2022-11-09T09:17:28.931Z,17.5
2022-11-09T09:18:32.100Z,17.6
2022-11-09T09:19:35.907Z,17.5
2022-11-09T09:20:39.203Z,17.6
2022-11-09T09:21:42.865Z,17.5
2022-11-09T09:22:45.971Z,17.6
2022-11-09T09:23:49.187Z,17.5
2022-11-09T09:24:51.785Z,17.6
2022-11-09T09:25:59.502Z,17.6
2022-11-09T09:27:03.101Z,17.5
2022-11-09T09:28:06.168Z,17.5
2022-11-09T09:29:09.330Z,17.5
2022-11-09T09:30:13.147Z,17.4
2022-11-09T09:31:19.764Z,17.5
2022-11-09T09:32:23.235Z,17.5
2022-11-09T09:33:26.101Z,17.4
2022-11-09T09:34:28.889Z,17.4
2022-11-09T09:35:32.267Z,17.4
2022-11-09T09:36:34.990Z,17.4
2022-11-09T09:37:37.992Z,17.5
2022-11-09T09:38:41.226Z,17.5
2022-11-09T09:39:44.412Z,17.5
2022-11-09T09:40:47.612Z,17.5
2022-11-09T09:41:50.535Z,17.5
2022-11-09T09:42:54.685Z,17.5
2022-11-09T09:43:57.762Z,17.5
2022-11-09T09:45:01.039Z,17.6
2022-11-09T09:46:04.552Z,17.6
2022-11-09T09:47:08.008Z,17.6
2022-11-09T09:48:11.004Z,17.7
2022-11-09T09:49:14.210Z,17.7
2022-11-09T09:50:17.191Z,17.7
2022-11-09T09:51:20.520Z,17.8
2022-11-09T09:52:23.665Z,17.8
2022-11-09T09:53:26.489Z,17.9
2022-11-09T09:54:29.886Z,18
2022-11-09T09:55:33.629Z,18
2022-11-09T09:56:36.874Z,18.1
2022-11-09T09:57:43.102Z,18.1
2022-11-09T09:58:46.196Z,18.1
2022-11-09T09:59:49.547Z,18.1
2022-11-09T10:00:52.496Z,18.1
2022-11-09T10:01:55.618Z,18.2
2022-11-09T10:02:59.341Z,18.1
2022-11-09T10:04:03.268Z,18.1
2022-11-09T10:05:06.878Z,18.1
2022-11-09T10:06:09.748Z,18.2
2022-11-09T10:07:13.125Z,18.2
2022-11-09T10:08:16.269Z,18.2
2022-11-09T10:09:19.215Z,18.2
2022-11-09T10:10:22.298Z,18.3
2022-11-09T10:11:25.411Z,18.3
2022-11-09T10:12:29.041Z,18.3
2022-11-09T10:13:32.245Z,18.3
2022-11-09T10:14:35.079Z,18.3
2022-11-09T10:15:38.538Z,18.3
2022-11-09T10:16:41.263Z,18.3
2022-11-09T10:17:44.754Z,18.3
2022-11-09T10:18:48.043Z,18.3
2022-11-09T10:19:51.236Z,18.3
2022-11-09T10:20:54.228Z,18.3
2022-11-09T10:21:57.587Z,18.3
2022-11-09T10:23:00.118Z,18.3
2022-11-09T10:24:03.260Z,18.3
2022-11-09T10:26:05.436Z,18.3
2022-11-09T10:27:18.649Z,18.2
2022-11-09T10:28:22.446Z,18.2
2022-11-09T10:29:26.746Z,18.2
2022-11-09T10:30:30.750Z,18.2
2022-11-09T10:31:34.327Z,18.2
2022-11-09T10:32:37.716Z,18.2
2022-11-09T10:33:40.190Z,18.2
2022-11-09T10:34:43.056Z,18.1
2022-11-09T10:35:45.808Z,18.2
2022-11-09T10:36:48.360Z,18.2
2022-11-09T10:37:51.702Z,18.2
2022-11-09T10:38:55.153Z,18.2
2022-11-09T10:39:58.252Z,18.2
2022-11-09T10:41:01.626Z,18.2
2022-11-09T10:42:04.431Z,18.2
2022-11-09T10:43:08.474Z,18.2
2022-11-09T10:44:18.418Z,18.2
2022-11-09T10:45:21.585Z,18.2
2022-11-09T10:46:24.960Z,18.3
2022-11-09T10:47:28.029Z,18.3
2022-11-09T10:48:31.131Z,18.3
2022-11-09T10:49:34.894Z,18.3
2022-11-09T10:50:38.076Z,18.3
2022-11-09T10:51:41.165Z,18.3
2022-11-09T10:52:48.335Z,18.3
2022-11-09T10:53:51.780Z,18.3
2022-11-09T10:54:54.881Z,18.3
2022-11-09T10:55:57.687Z,18.3
2022-11-09T10:57:07.711Z,18.3
2022-11-09T10:58:11.120Z,18.4
2022-11-09T10:59:14.573Z,18.4
2022-11-09T11:00:17.336Z,18.4
2022-11-09T11:01:21.460Z,18.5
2022-11-09T11:02:25.634Z,18.5
2022-11-09T11:03:28.877Z,18.6
2022-11-09T11:04:31.657Z,18.7
2022-11-09T11:05:35.014Z,18.9
2022-11-09T11:06:38.309Z,19
2022-11-09T11:07:42.328Z,19.1
2022-11-09T11:08:45.557Z,19.3
2022-11-09T11:09:49.001Z,19.4
2022-11-09T11:11:34.709Z,19.6
2022-11-09T11:12:41.476Z,19.7
2022-11-09T11:13:44.888Z,20
2022-11-09T11:14:48.255Z,20.1
2022-11-09T11:15:51.334Z,20.2
2022-11-09T11:16:54.374Z,20.3
2022-11-09T11:17:56.815Z,20.4
2022-11-09T11:19:00.000Z,20.5
2022-11-09T11:20:03.272Z,20.6
2022-11-09T11:21:06.750Z,20.6
2022-11-09T11:22:10.031Z,20.7
2022-11-09T11:23:13.607Z,20.7
2022-11-09T11:24:16.659Z,20.7
2022-11-09T11:25:19.836Z,20.7
2022-11-09T11:26:23.190Z,20.7
2022-11-09T11:27:26.581Z,20.7
2022-11-09T11:28:29.684Z,20.7
2022-11-09T11:29:32.827Z,20.7
2022-11-09T11:30:36.219Z,20.7
2022-11-09T11:31:39.380Z,20.7
2022-11-09T11:32:51.487Z,20.6
2022-11-09T11:33:54.935Z,20.6
2022-11-09T11:35:02.697Z,20.5
2022-11-09T11:36:05.823Z,20.5
2022-11-09T11:37:08.934Z,20.4
2022-11-09T11:38:12.360Z,20.4
2022-11-09T11:39:15.175Z,20.3
2022-11-09T11:40:17.682Z,20.3
2022-11-09T11:41:21.565Z,20.2
2022-11-09T11:42:25.285Z,20.1
2022-11-09T11:43:28.667Z,20
2022-11-09T11:44:31.298Z,20
2022-11-09T11:45:42.844Z,19.9
2022-11-09T11:46:45.124Z,19.8
2022-11-09T11:47:49.188Z,19.8
2022-11-09T11:48:51.832Z,19.7
2022-11-09T11:49:54.987Z,19.7
2022-11-09T11:50:58.456Z,19.6
2022-11-09T11:52:01.815Z,19.5
2022-11-09T11:53:05.184Z,19.5
2022-11-09T11:54:08.528Z,19.5
2022-11-09T11:55:11.391Z,19.4
2022-11-09T11:56:14.522Z,19.4
2022-11-09T11:57:17.974Z,19.4
2022-11-09T11:58:21.146Z,19.4
2022-11-09T11:59:24.677Z,19.3
2022-11-09T12:00:27.674Z,19.3
2022-11-09T12:01:30.255Z,19.3
2022-11-09T12:02:33.271Z,19.3
2022-11-09T12:03:36.341Z,19.3
2022-11-09T12:04:40.059Z,19.3
2022-11-09T12:05:43.416Z,19.2
2022-11-09T12:06:46.814Z,19.2
2022-11-09T12:07:57.721Z,19.2
2022-11-09T12:09:01.035Z,19.2
2022-11-09T12:10:03.635Z,19.2
2022-11-09T12:11:07.373Z,19.2
2022-11-09T12:12:10.409Z,19.2
2022-11-09T12:13:13.290Z,19.1
2022-11-09T12:14:16.094Z,19.1
2022-11-09T12:15:19.269Z,19
2022-11-09T12:16:22.160Z,19
2022-11-09T12:17:26.018Z,19
2022-11-09T12:18:29.093Z,18.9
2022-11-09T12:19:36.742Z,18.9
2022-11-09T12:20:39.834Z,18.9
2022-11-09T12:21:42.995Z,18.9
2022-11-09T12:22:45.822Z,18.9
2022-11-09T12:23:48.903Z,18.8
2022-11-09T12:24:52.674Z,18.8
2022-11-09T12:25:55.483Z,18.8
2022-11-09T12:27:33.335Z,18.8
2022-11-09T12:28:36.612Z,18.8
2022-11-09T12:29:39.471Z,18.7
2022-11-09T12:30:42.596Z,18.7
2022-11-09T12:31:45.754Z,18.7
2022-11-09T12:32:49.252Z,18.7
2022-11-09T12:33:51.848Z,18.7
2022-11-09T12:34:54.730Z,18.7
2022-11-09T12:35:57.860Z,18.7
2022-11-09T12:37:01.545Z,18.7
2022-11-09T12:38:05.615Z,18.8
2022-11-09T12:39:08.326Z,18.8
2022-11-09T12:40:11.996Z,18.8
2022-11-09T12:41:15.190Z,18.9
2022-11-09T12:42:18.300Z,18.9
2022-11-09T12:43:22.697Z,19
2022-11-09T12:44:27.353Z,19
2022-11-09T12:45:30.502Z,19.2
2022-11-09T12:46:33.346Z,19.3
2022-11-09T12:47:35.880Z,19.4
2022-11-09T12:48:39.388Z,19.5
2022-11-09T12:49:42.577Z,19.6
2022-11-09T12:50:46.648Z,19.7
2022-11-09T12:51:49.839Z,19.8
2022-11-09T12:53:01.379Z,19.9
2022-11-09T12:54:03.998Z,20
2022-11-09T12:55:07.005Z,20
2022-11-09T12:56:10.017Z,20.1
2022-11-09T12:57:13.448Z,20.1
2022-11-09T12:58:16.634Z,20.1
2022-11-09T12:59:19.321Z,20.2
2022-11-09T13:00:21.817Z,20.2
2022-11-09T13:01:25.146Z,20.1
2022-11-09T13:02:28.725Z,20.1
2022-11-09T13:03:31.550Z,20
2022-11-09T13:04:35.122Z,20
2022-11-09T13:05:38.701Z,19.9
2022-11-09T13:06:42.139Z,19.8
2022-11-09T13:07:45.211Z,19.8
2022-11-09T13:08:48.311Z,19.7
2022-11-09T13:09:51.645Z,19.7
2022-11-09T13:10:54.812Z,19.6
2022-11-09T13:11:58.387Z,19.6
2022-11-09T13:13:01.742Z,19.6
2022-11-09T13:14:04.763Z,19.5
2022-11-09T13:15:08.094Z,19.5
2022-11-09T13:16:11.303Z,19.5
2022-11-09T13:17:14.907Z,19.4
2022-11-09T13:18:17.436Z,19.4
2022-11-09T13:19:20.889Z,19.4
2022-11-09T13:20:57.637Z,19.4
2022-11-09T13:22:02.343Z,19.4
2022-11-09T13:23:05.880Z,19.3
2022-11-09T13:24:23.144Z,19.3
2022-11-09T13:25:28.365Z,19.3
2022-11-09T13:26:31.450Z,19.2
2022-11-09T13:27:34.092Z,19.2
2022-11-09T13:28:36.248Z,19.2
2022-11-09T13:29:39.896Z,19.1
2022-11-09T13:30:43.326Z,19.1
2022-11-09T13:31:46.151Z,19.1
2022-11-09T13:32:48.942Z,19.1
2022-11-09T13:33:51.618Z,19.1
2022-11-09T13:34:54.528Z,19
2022-11-09T13:35:58.626Z,19
2022-11-09T13:37:01.817Z,19
2022-11-09T13:38:10.727Z,19
2022-11-09T13:39:14.149Z,19
2022-11-09T13:40:16.864Z,19
2022-11-09T13:41:20.033Z,18.9
2022-11-09T13:42:23.135Z,18.9
2022-11-09T13:43:26.525Z,18.9
2022-11-09T13:44:39.531Z,18.8
2022-11-09T13:45:50.550Z,18.8
2022-11-09T13:46:54.058Z,18.8
2022-11-09T13:47:57.661Z,18.8
2022-11-09T13:49:01.106Z,18.7
2022-11-09T13:50:04.004Z,18.7
2022-11-09T13:51:07.422Z,18.7
2022-11-09T13:52:11.143Z,18.7
2022-11-09T13:53:15.104Z,18.7
2022-11-09T13:54:18.256Z,18.7
2022-11-09T13:55:21.596Z,18.6
2022-11-09T13:56:28.402Z,18.6
2022-11-09T13:57:32.163Z,18.6
2022-11-09T13:58:35.270Z,18.6
2022-11-09T13:59:38.734Z,18.6
2022-11-09T14:00:42.262Z,18.6
2022-11-09T14:01:46.176Z,18.6
2022-11-09T14:02:49.890Z,18.5
2022-11-09T14:03:53.743Z,18.5
2022-11-09T14:04:56.912Z,18.5
2022-11-09T14:05:59.707Z,18.5
2022-11-09T14:07:03.065Z,18.5
2022-11-09T14:08:07.676Z,18.5